createdAt,value
2023-03-02T00:02:40.876Z,10.50
2023-03-02T00:05:42.903Z,11.13
2023-03-02T00:08:44.856Z,10.32
2023-03-02T00:11:46.919Z,11.03
2023-03-02T00:14:49.057Z,11.10
2023-03-02T00:17:51.355Z,11.93
2023-03-02T00:20:53.739Z,11.05
2023-03-02T00:23:55.763Z,10.18
2023-03-02T00:26:58.269Z,10.95
2023-03-02T00:30:00.757Z,11.80
2023-03-02T00:33:03.215Z,11.40
2023-03-02T00:36:05.433Z,12.52
2023-03-02T00:39:07.517Z,12.27
2023-03-02T00:42:09.887Z,13.07
2023-03-02T00:45:12.517Z,11.55
2023-03-02T00:48:15.035Z,11.68
2023-03-02T00:51:17.815Z,11.15
2023-03-02T00:54:19.846Z,11.45
2023-03-02T00:57:21.823Z,11.25
2023-03-02T01:00:24.204Z,12.07
2023-03-02T01:03:26.802Z,12.07
2023-03-02T01:06:29.374Z,14.13
2023-03-02T01:09:31.557Z,13.13
2023-03-02T01:12:33.850Z,13.83
2023-03-02T01:15:36.629Z,13.85
2023-03-02T01:18:39.129Z,13.27
2023-03-02T01:21:41.742Z,13.10
2023-03-02T01:24:44.273Z,15.88
2023-03-02T01:27:46.495Z,13.52
2023-03-02T01:30:49.092Z,14.75
2023-03-02T01:33:51.242Z,14.93
2023-03-02T01:36:53.767Z,16.42
2023-03-02T01:39:56.213Z,15.43
2023-03-02T01:42:58.478Z,16.57
2023-03-02T01:46:13.441Z,14.88
2023-03-02T01:49:34.630Z,14.23
2023-03-02T01:52:38.659Z,13.10
2023-03-02T01:55:44.186Z,13.45
2023-03-02T01:58:46.745Z,14.38
2023-03-02T02:01:50.698Z,14.05
2023-03-02T02:04:52.676Z,15.73
2023-03-02T02:07:55.147Z,15.40
2023-03-02T02:10:57.309Z,14.93
2023-03-02T02:13:59.833Z,19.83
2023-03-02T02:17:02.290Z,19.23
2023-03-02T02:20:07.510Z,18.98
2023-03-02T02:23:28.199Z,16.77
2023-03-02T02:26:41.823Z,17.02
2023-03-02T02:29:47.426Z,15.55
2023-03-02T02:32:49.670Z,16.67
2023-03-02T02:35:52.718Z,16.93
2023-03-02T02:38:55.428Z,13.20
2023-03-02T02:41:59.020Z,12.73
2023-03-02T02:45:04.527Z,14.30
2023-03-02T02:48:09.068Z,13.95
2023-03-02T02:51:12.136Z,12.45
2023-03-02T02:54:15.358Z,13.18
2023-03-02T02:57:17.944Z,11.80
2023-03-02T03:00:21.289Z,12.63
2023-03-02T03:03:41.391Z,12.52
2023-03-02T03:06:51.409Z,11.07
2023-03-02T03:10:14.443Z,11.75
2023-03-02T03:13:17.087Z,11.60
2023-03-02T03:16:19.928Z,11.03
2023-03-02T03:19:25.117Z,12.15
2023-03-02T03:22:28.101Z,9.82
2023-03-02T03:25:32.126Z,11.55
2023-03-02T03:28:35.807Z,10.63
2023-03-02T03:31:39.346Z,11.38
2023-03-02T03:34:41.776Z,11.25
2023-03-02T03:38:06.263Z,24.37
2023-03-02T03:41:08.515Z,73.32
2023-03-02T03:44:10.958Z,34.00
2023-03-02T03:47:16.202Z,13.80
2023-03-02T03:50:19.283Z,11.07
2023-03-02T03:53:21.797Z,9.93
2023-03-02T03:56:24.405Z,26.92
2023-03-02T03:59:27.161Z,22.38
2023-03-02T04:02:32.769Z,22.60
2023-03-02T04:05:35.129Z,16.50
2023-03-02T04:08:38.278Z,12.67
2023-03-02T04:11:40.852Z,12.43
2023-03-02T04:14:43.234Z,9.48
2023-03-02T04:17:46.840Z,9.40
2023-03-02T04:20:51.521Z,10.10
2023-03-02T04:23:53.757Z,9.43
2023-03-02T04:26:57.922Z,9.60
2023-03-02T04:30:00.481Z,10.70
2023-03-02T04:33:03.254Z,9.75
2023-03-02T04:36:07.414Z,9.88
2023-03-02T04:39:10.884Z,10.33
2023-03-02T04:42:12.914Z,9.50
2023-03-02T04:45:14.909Z,9.75
2023-03-02T04:48:17.408Z,11.07
2023-03-02T04:51:24.232Z,9.25
2023-03-02T04:54:26.367Z,8.00
2023-03-02T04:57:28.412Z,8.45
2023-03-02T05:00:34.141Z,18.65
2023-03-02T05:03:36.207Z,9.15
2023-03-02T05:06:38.299Z,8.38
2023-03-02T05:09:40.243Z,7.97
2023-03-02T05:12:55.003Z,8.77
2023-03-02T05:15:58.497Z,9.27
2023-03-02T05:19:00.768Z,8.73
2023-03-02T05:22:02.903Z,11.02
2023-03-02T05:25:05.424Z,11.13
2023-03-02T05:28:07.508Z,9.95
2023-03-02T05:31:09.836Z,10.50
2023-03-02T05:34:13.358Z,10.15
2023-03-02T05:37:15.752Z,9.75
2023-03-02T05:40:19.125Z,9.83
2023-03-02T05:43:21.783Z,10.02
2023-03-02T05:46:24.253Z,10.02
2023-03-02T05:49:26.514Z,9.93
2023-03-02T05:52:28.942Z,11.15
2023-03-02T05:55:31.004Z,11.88
2023-03-02T05:58:33.465Z,12.82
2023-03-02T06:01:36.872Z,12.98
2023-03-02T06:04:43.188Z,14.90
2023-03-02T06:07:45.451Z,44.67
2023-03-02T06:10:47.820Z,22.80
2023-03-02T06:13:56.809Z,22.77
2023-03-02T06:16:58.883Z,18.90
2023-03-02T06:20:01.126Z,18.80
2023-03-02T06:23:03.937Z,20.73
2023-03-02T06:26:10.064Z,20.92
2023-03-02T06:29:13.266Z,25.55
2023-03-02T06:32:15.647Z,25.48
2023-03-02T06:35:18.353Z,41.33
2023-03-02T06:38:20.470Z,38.83
2023-03-02T06:41:22.938Z,25.13
2023-03-02T06:44:25.394Z,21.75
2023-03-02T06:47:27.406Z,18.02
2023-03-02T06:50:29.492Z,24.10
2023-03-02T06:53:31.691Z,19.20
2023-03-02T06:56:34.466Z,21.35
2023-03-02T06:59:36.737Z,19.65
2023-03-02T07:02:40.504Z,19.70
2023-03-02T07:05:46.379Z,22.33
2023-03-02T07:08:48.739Z,21.40
2023-03-02T07:11:51.185Z,17.80
2023-03-02T07:14:53.462Z,17.00
2023-03-02T07:18:03.990Z,14.80
2023-03-02T07:21:06.304Z,13.03
2023-03-02T07:24:08.491Z,9.57
2023-03-02T07:27:10.509Z,9.98
2023-03-02T07:30:12.868Z,9.27
2023-03-02T07:33:14.938Z,7.53
2023-03-02T07:36:16.960Z,6.53
2023-03-02T07:39:19.158Z,6.05
2023-03-02T07:42:21.274Z,6.63
2023-03-02T07:45:27.114Z,6.85
2023-03-02T07:48:29.206Z,5.60
2023-03-02T07:51:32.152Z,5.87
2023-03-02T07:54:34.485Z,4.70
2023-03-02T07:57:36.613Z,5.72
2023-03-02T08:00:41.264Z,4.18
2023-03-02T08:03:45.009Z,3.78
2023-03-02T08:06:47.010Z,3.88
2023-03-02T08:09:49.212Z,3.92
2023-03-02T08:12:51.678Z,4.70
2023-03-02T08:15:59.256Z,5.72
2023-03-02T08:19:01.344Z,4.53
2023-03-02T08:22:03.952Z,4.20
2023-03-02T08:25:07.329Z,4.30
2023-03-02T08:28:09.412Z,3.58
2023-03-02T08:31:12.378Z,4.25
2023-03-02T08:34:14.506Z,3.58
2023-03-02T08:37:16.898Z,3.88
2023-03-02T08:40:19.027Z,3.80
2023-03-02T08:43:21.643Z,3.60
2023-03-02T08:46:24.248Z,5.05
2023-03-02T08:49:26.688Z,3.85
2023-03-02T08:52:28.860Z,12.67
2023-03-02T08:55:30.866Z,9.73
2023-03-02T08:58:33.150Z,5.00
2023-03-02T09:01:36.099Z,4.07
2023-03-02T09:04:39.333Z,4.37
2023-03-02T09:07:41.614Z,6.10
2023-03-02T09:10:44.752Z,5.47
2023-03-02T09:13:47.166Z,5.20
2023-03-02T09:16:49.487Z,5.73
2023-03-02T09:19:51.647Z,4.80
2023-03-02T09:22:53.968Z,6.45
2023-03-02T09:25:56.452Z,5.13
2023-03-02T09:28:58.615Z,5.50
2023-03-02T09:32:00.778Z,5.90
2023-03-02T09:35:02.961Z,5.22
2023-03-02T09:38:05.367Z,5.88
2023-03-02T09:41:12.841Z,5.37
2023-03-02T09:44:43.571Z,6.28
2023-03-02T09:48:12.088Z,8.00
2023-03-02T09:51:20.316Z,5.95
2023-03-02T09:54:24.310Z,5.47
2023-03-02T09:57:28.600Z,5.32
2023-03-02T10:00:39.891Z,6.85
2023-03-02T10:03:48.277Z,5.70
2023-03-02T10:06:53.046Z,6.72
2023-03-02T10:09:55.644Z,6.30
2023-03-02T10:13:04.098Z,6.45
2023-03-02T10:16:12.595Z,6.10
2023-03-02T10:19:20.529Z,7.38
2023-03-02T10:22:29.799Z,6.18
2023-03-02T10:25:38.145Z,6.67
2023-03-02T10:28:50.144Z,6.40
2023-03-02T10:32:15.630Z,6.88
2023-03-02T10:35:20.936Z,7.05
2023-03-02T10:38:23.694Z,7.35
2023-03-02T10:41:27.433Z,7.47
2023-03-02T10:44:33.261Z,6.65
2023-03-02T10:47:35.276Z,7.40
2023-03-02T10:50:37.882Z,6.90
2023-03-02T10:53:40.087Z,7.15
2023-03-02T10:56:42.516Z,6.67
2023-03-02T10:59:45.313Z,6.88
2023-03-02T11:02:50.486Z,6.75
2023-03-02T11:05:52.700Z,6.53
2023-03-02T11:08:58.990Z,5.88
2023-03-02T11:12:01.545Z,6.83
2023-03-02T11:15:24.425Z,6.15
2023-03-02T11:18:26.944Z,5.45
2023-03-02T11:21:39.584Z,5.75
2023-03-02T11:24:42.908Z,5.95
2023-03-02T11:27:45.040Z,5.77
2023-03-02T11:30:48.182Z,6.05
2023-03-02T11:34:17.600Z,6.10
2023-03-02T11:37:23.405Z,5.70
2023-03-02T11:40:32.057Z,5.30
2023-03-02T11:43:34.718Z,5.83
2023-03-02T11:46:37.115Z,5.43
2023-03-02T11:49:43.419Z,6.20
2023-03-02T11:52:50.718Z,5.90
2023-03-02T11:55:53.400Z,6.45
2023-03-02T11:58:56.924Z,6.83
2023-03-02T12:02:00.797Z,6.57
2023-03-02T12:05:04.495Z,6.50
2023-03-02T12:08:08.263Z,6.57
2023-03-02T12:11:16.784Z,5.75
2023-03-02T12:14:28.659Z,5.30
2023-03-02T12:17:32.488Z,5.63
2023-03-02T12:20:35.073Z,6.10
2023-03-02T12:23:50.024Z,7.90
2023-03-02T12:27:08.080Z,6.47
2023-03-02T12:30:25.166Z,6.33
2023-03-02T12:33:27.634Z,5.60
2023-03-02T12:36:31.929Z,6.63
2023-03-02T12:39:53.776Z,6.30
2023-03-02T12:43:02.176Z,6.40
2023-03-02T12:46:10.804Z,5.83
2023-03-02T12:49:35.474Z,6.03
2023-03-02T12:52:37.742Z,21.63
2023-03-02T12:55:41.230Z,5.95
2023-03-02T12:58:48.553Z,6.38
2023-03-02T13:01:50.608Z,5.40
2023-03-02T13:04:56.429Z,4.95
2023-03-02T13:08:02.857Z,14.60
2023-03-02T13:11:07.408Z,5.72
2023-03-02T13:14:28.078Z,14.65
2023-03-02T13:17:31.561Z,5.03
2023-03-02T13:20:33.699Z,4.60
2023-03-02T13:23:35.789Z,5.40
2023-03-02T13:26:39.912Z,4.80
2023-03-02T13:29:42.066Z,5.57
2023-03-02T13:32:44.140Z,4.57
2023-03-02T13:35:46.683Z,5.75
2023-03-02T13:38:49.501Z,5.30
2023-03-02T13:41:52.686Z,4.45
2023-03-02T13:44:55.168Z,4.10
2023-03-02T13:47:58.611Z,4.27
2023-03-02T13:51:16.915Z,22.90
2023-03-02T13:54:22.821Z,9.90
2023-03-02T13:57:30.792Z,5.05
2023-03-02T14:00:33.568Z,4.85
2023-03-02T14:03:36.012Z,5.30
2023-03-02T14:06:38.737Z,4.43
2023-03-02T14:09:41.180Z,4.15
2023-03-02T14:12:46.699Z,4.30
2023-03-02T14:15:50.371Z,4.55
2023-03-02T14:18:53.090Z,4.30
2023-03-02T14:21:55.232Z,4.50
2023-03-02T14:24:58.070Z,4.30
2023-03-02T14:28:00.651Z,6.50
2023-03-02T14:31:03.314Z,5.78
2023-03-02T14:34:06.053Z,5.03
2023-03-02T14:37:12.542Z,4.03
2023-03-02T14:40:28.166Z,4.97
2023-03-02T14:43:30.903Z,4.68
2023-03-02T14:46:33.360Z,4.55
2023-03-02T14:49:38.706Z,4.40
2023-03-02T14:52:41.898Z,4.53
2023-03-02T14:55:44.013Z,4.72
2023-03-02T14:58:46.645Z,4.38
2023-03-02T15:01:49.038Z,5.40
2023-03-02T15:04:56.064Z,4.33
2023-03-02T15:07:59.038Z,4.72
2023-03-02T15:11:01.065Z,4.75
2023-03-02T15:14:03.190Z,4.75
2023-03-02T15:17:05.717Z,4.95
2023-03-02T15:20:08.809Z,4.90
2023-03-02T15:23:11.212Z,4.43
2023-03-02T15:26:14.103Z,4.72
2023-03-02T15:29:16.780Z,4.32
2023-03-02T15:32:19.006Z,5.05
2023-03-02T15:35:21.530Z,5.37
2023-03-02T15:38:23.620Z,5.40
2023-03-02T15:41:26.066Z,6.10
2023-03-02T15:44:29.730Z,4.70
2023-03-02T15:47:33.589Z,5.30
2023-03-02T15:50:36.056Z,4.73
2023-03-02T15:53:38.735Z,4.97
2023-03-02T15:56:44.230Z,5.22
2023-03-02T15:59:46.887Z,5.75
2023-03-02T16:02:49.725Z,5.60
2023-03-02T16:05:51.884Z,5.77
2023-03-02T16:08:54.516Z,7.85
2023-03-02T16:11:56.881Z,7.82
2023-03-02T16:14:59.106Z,10.48
2023-03-02T16:18:07.708Z,10.43
2023-03-02T16:21:13.355Z,11.83
2023-03-02T16:24:17.234Z,36.67
2023-03-02T16:27:19.556Z,17.60
2023-03-02T16:30:23.709Z,12.40
2023-03-02T16:33:30.117Z,8.60
2023-03-02T16:36:32.477Z,9.73
2023-03-02T16:39:35.041Z,8.90
2023-03-02T16:42:37.591Z,24.05
2023-03-02T16:45:39.982Z,23.13
2023-03-02T16:48:42.257Z,18.75
2023-03-02T16:51:44.492Z,27.50
2023-03-02T16:54:46.643Z,29.10
2023-03-02T16:57:48.856Z,23.30
2023-03-02T17:00:51.842Z,13.30
2023-03-02T17:03:54.532Z,12.17
2023-03-02T17:07:01.058Z,12.00
2023-03-02T17:10:03.756Z,14.20
2023-03-02T17:13:06.216Z,12.98
2023-03-02T17:16:09.380Z,12.67
2023-03-02T17:19:17.825Z,14.10
2023-03-02T17:22:19.925Z,15.07
2023-03-02T17:25:22.514Z,16.70
2023-03-02T17:28:24.626Z,18.47
2023-03-02T17:31:26.766Z,18.25
2023-03-02T17:34:31.280Z,18.55
2023-03-02T17:37:33.440Z,20.60
2023-03-02T17:40:35.827Z,24.33
2023-03-02T17:43:40.537Z,22.67
2023-03-02T17:46:43.125Z,22.75
2023-03-02T17:49:48.163Z,21.60
2023-03-02T17:52:50.672Z,22.05
2023-03-02T17:55:53.208Z,23.10
2023-03-02T17:58:56.157Z,21.98
2023-03-02T18:01:58.747Z,21.67
2023-03-02T18:05:01.177Z,21.42
2023-03-02T18:08:03.233Z,22.15
2023-03-02T18:11:05.566Z,22.83
2023-03-02T18:14:08.070Z,22.45
2023-03-02T18:17:10.751Z,22.45
2023-03-02T18:20:14.040Z,22.20
2023-03-02T18:23:16.366Z,22.27
2023-03-02T18:26:18.835Z,21.83
2023-03-02T18:29:22.574Z,21.92
2023-03-02T18:32:24.714Z,22.17
2023-03-02T18:35:26.754Z,23.73
2023-03-02T18:38:31.062Z,24.15
2023-03-02T18:41:33.189Z,23.07
2023-03-02T18:44:35.169Z,25.27
2023-03-02T18:47:37.653Z,25.48
2023-03-02T18:50:39.727Z,24.97
2023-03-02T18:53:43.196Z,23.95
2023-03-02T18:56:45.326Z,24.90
2023-03-02T18:59:47.580Z,24.52
2023-03-02T19:02:49.542Z,23.42
2023-03-02T19:05:53.263Z,23.83
2023-03-02T19:08:55.692Z,21.90
2023-03-02T19:11:57.707Z,23.83
2023-03-02T19:14:59.666Z,23.63
2023-03-02T19:18:01.679Z,27.35
2023-03-02T19:21:04.931Z,29.43
2023-03-02T19:24:07.140Z,28.90
2023-03-02T19:27:11.520Z,30.38
2023-03-02T19:30:15.873Z,30.80
2023-03-02T19:33:17.831Z,30.70
2023-03-02T19:36:20.258Z,29.65
2023-03-02T19:39:22.602Z,31.85
2023-03-02T19:42:25.034Z,34.03
2023-03-02T19:45:29.150Z,40.33
2023-03-02T19:48:31.691Z,38.00
2023-03-02T19:51:33.807Z,34.97
2023-03-02T19:54:35.836Z,33.75
2023-03-02T19:57:39.722Z,31.88
2023-03-02T20:00:41.699Z,34.13
2023-03-02T20:03:44.154Z,32.42
2023-03-02T20:06:46.627Z,34.78
2023-03-02T20:09:48.635Z,32.20
2023-03-02T20:12:51.117Z,33.27
2023-03-02T20:15:53.726Z,34.85
2023-03-02T20:18:58.002Z,34.50
2023-03-02T20:22:02.912Z,36.97
2023-03-02T20:25:05.037Z,35.30
2023-03-02T20:28:07.403Z,35.42
2023-03-02T20:31:11.906Z,41.50
2023-03-02T20:34:16.612Z,38.00
2023-03-02T20:37:18.636Z,44.83
2023-03-02T20:40:21.603Z,47.55
2023-03-02T20:43:23.694Z,50.97
2023-03-02T20:46:28.349Z,50.63
2023-03-02T20:49:30.462Z,47.13
2023-03-02T20:52:32.670Z,48.53
2023-03-02T20:55:35.499Z,45.45
2023-03-02T20:58:41.233Z,50.65
2023-03-02T21:01:43.324Z,49.72
2023-03-02T21:04:46.227Z,51.08
2023-03-02T21:07:48.385Z,50.67
2023-03-02T21:10:50.632Z,45.80
2023-03-02T21:13:52.753Z,46.40
2023-03-02T21:16:54.869Z,42.75
2023-03-02T21:19:57.228Z,41.30
2023-03-02T21:23:02.440Z,40.40
2023-03-02T21:26:04.862Z,39.13
2023-03-02T21:29:06.841Z,41.17
2023-03-02T21:32:09.638Z,40.22
2023-03-02T21:35:15.593Z,41.25
2023-03-02T21:38:18.077Z,44.83
2023-03-02T21:41:20.692Z,40.67
2023-03-02T21:44:23.228Z,40.50
2023-03-02T21:47:25.537Z,38.20
2023-03-02T21:50:28.292Z,38.38
2023-03-02T21:53:30.823Z,38.43
2023-03-02T21:56:32.929Z,37.42
2023-03-02T21:59:37.453Z,36.90
2023-03-02T22:02:39.386Z,38.50
2023-03-02T22:05:41.399Z,36.67
2023-03-02T22:08:43.988Z,38.70
2023-03-02T22:11:53.019Z,39.60
2023-03-02T22:14:55.211Z,42.70
2023-03-02T22:17:57.265Z,41.25
2023-03-02T22:20:59.343Z,41.50
2023-03-02T22:24:13.358Z,43.63
2023-03-02T22:27:21.438Z,42.97
2023-03-02T22:30:23.591Z,40.92
2023-03-02T22:33:29.677Z,41.47
2023-03-02T22:36:31.651Z,37.05
2023-03-02T22:39:34.215Z,36.42
2023-03-02T22:42:36.135Z,34.50
2023-03-02T22:45:39.644Z,36.17
2023-03-02T22:48:42.711Z,34.65
2023-03-02T22:51:45.115Z,33.63
2023-03-02T22:54:47.106Z,33.77
2023-03-02T22:57:49.228Z,32.80
2023-03-02T23:00:51.374Z,33.90
2023-03-02T23:03:54.485Z,33.67
2023-03-02T23:06:57.620Z,31.88
2023-03-02T23:09:59.644Z,31.60
2023-03-02T23:13:01.955Z,29.00
2023-03-02T23:16:11.233Z,28.70
2023-03-02T23:19:13.419Z,30.08
2023-03-02T23:22:16.000Z,30.50
2023-03-02T23:25:18.177Z,30.30
2023-03-02T23:28:20.526Z,29.17
2023-03-02T23:31:22.509Z,32.22
2023-03-02T23:34:24.671Z,29.48
2023-03-02T23:37:26.980Z,30.77
2023-03-02T23:40:29.030Z,31.20
2023-03-02T23:43:31.081Z,31.77
2023-03-02T23:46:33.330Z,33.93
2023-03-02T23:49:35.464Z,32.05
2023-03-02T23:52:40.692Z,33.08
2023-03-02T23:55:47.584Z,32.70
2023-03-02T23:58:49.616Z,31.33
